Mount Lebanon, Pennsylvania
Current Conditions -  °F | °C
As of 10:53 AM on Wednesday 22 Oct 2014 (Local Time) from KAGC Reporting Station
Overcast Overcast  
Wind Chill: 45°   Ceiling: 1300
Heat Index: 48°   Visibility: 10mi
Dew Point: 41°   Wind: 7mph
Humidity: 77%   Direction: 340°NNW
Pressure: 30.14"   Gusts: NA
Location:  40.38°N, 80.04°W
Report Text: KAGC 221453Z 34006KT 10SM OVC013 09/05 A3014 RMK AO2 SLP216 T00890050 51015
Loading
Personal Weather Stations






























Interactive Weather Map
Tropical Storm Tracking
New forecast layout! Learn more

10-Day Weather Forecast

Advertisements
Track Severe Weather on mobile